sensor_id;sensor_type;location;lat;lon;timestamp;temperature;humidity
36206;DHT22;22242;48.796;9.930;2024-01-30T00:02:12;4.20;99.90
36206;DHT22;22242;48.796;9.930;2024-01-30T00:04:39;4.30;99.90
36206;DHT22;22242;48.796;9.930;2024-01-30T00:07:05;4.20;99.90
36206;DHT22;22242;48.796;9.930;2024-01-30T00:09:34;4.10;99.90
36206;DHT22;22242;48.796;9.930;2024-01-30T00:12:01;4.20;99.90
36206;DHT22;22242;48.796;9.930;2024-01-30T00:14:28;4.20;99.90
36206;DHT22;22242;48.796;9.930;2024-01-30T00:16:54;4.00;99.90
36206;DHT22;22242;48.796;9.930;2024-01-30T00:19:21;3.90;99.90
36206;DHT22;22242;48.796;9.930;2024-01-30T00:21:48;4.00;99.90
36206;DHT22;22242;48.796;9.930;2024-01-30T00:24:15;4.20;99.90
36206;DHT22;22242;48.796;9.930;2024-01-30T00:26:43;4.20;99.90
36206;DHT22;22242;48.796;9.930;2024-01-30T00:29:10;4.10;99.90
36206;DHT22;22242;48.796;9.930;2024-01-30T00:31:37;4.20;99.90
36206;DHT22;22242;48.796;9.930;2024-01-30T00:34:03;3.90;99.90
36206;DHT22;22242;48.796;9.930;2024-01-30T00:36:30;3.70;99.90
36206;DHT22;22242;48.796;9.930;2024-01-30T00:38:57;3.60;99.90
36206;DHT22;22242;48.796;9.930;2024-01-30T00:41:24;3.50;99.90
36206;DHT22;22242;48.796;9.930;2024-01-30T00:43:52;3.50;99.90
36206;DHT22;22242;48.796;9.930;2024-01-30T00:46:19;4.20;99.90
36206;DHT22;22242;48.796;9.930;2024-01-30T00:48:45;3.50;99.90
36206;DHT22;22242;48.796;9.930;2024-01-30T00:51:12;3.40;99.90
36206;DHT22;22242;48.796;9.930;2024-01-30T00:53:39;3.40;99.90
36206;DHT22;22242;48.796;9.930;2024-01-30T00:56:07;3.30;99.90
36206;DHT22;22242;48.796;9.930;2024-01-30T00:58:34;3.30;99.90
36206;DHT22;22242;48.796;9.930;2024-01-30T01:01:02;3.30;99.90
36206;DHT22;22242;48.796;9.930;2024-01-30T01:03:29;3.50;99.90
36206;DHT22;22242;48.796;9.930;2024-01-30T01:05:56;3.40;99.90
36206;DHT22;22242;48.796;9.930;2024-01-30T01:08:23;3.50;99.90
36206;DHT22;22242;48.796;9.930;2024-01-30T01:10:50;3.40;99.90
36206;DHT22;22242;48.796;9.930;2024-01-30T01:13:17;3.50;99.90
36206;DHT22;22242;48.796;9.930;2024-01-30T01:15:44;3.40;99.90
36206;DHT22;22242;48.796;9.930;2024-01-30T01:18:12;3.40;99.90
36206;DHT22;22242;48.796;9.930;2024-01-30T01:20:39;3.40;99.90
36206;DHT22;22242;48.796;9.930;2024-01-30T01:23:06;3.30;99.90
36206;DHT22;22242;48.796;9.930;2024-01-30T01:25:33;3.30;99.90
36206;DHT22;22242;48.796;9.930;2024-01-30T01:28:00;3.30;99.90
36206;DHT22;22242;48.796;9.930;2024-01-30T01:30:27;3.30;99.90
36206;DHT22;22242;48.796;9.930;2024-01-30T01:32:54;3.20;99.90
36206;DHT22;22242;48.796;9.930;2024-01-30T01:35:24;3.20;99.90
36206;DHT22;22242;48.796;9.930;2024-01-30T01:37:51;3.20;99.90
36206;DHT22;22242;48.796;9.930;2024-01-30T01:40:22;3.10;99.90
36206;DHT22;22242;48.796;9.930;2024-01-30T01:42:49;3.10;99.90
36206;DHT22;22242;48.796;9.930;2024-01-30T01:45:17;3.10;99.90
36206;DHT22;22242;48.796;9.930;2024-01-30T01:47:44;3.10;99.90
36206;DHT22;22242;48.796;9.930;2024-01-30T01:50:12;3.10;99.90
36206;DHT22;22242;48.796;9.930;2024-01-30T01:52:41;3.10;99.90
36206;DHT22;22242;48.796;9.930;2024-01-30T01:55:08;3.10;99.90
36206;DHT22;22242;48.796;9.930;2024-01-30T01:57:37;3.20;99.90
36206;DHT22;22242;48.796;9.930;2024-01-30T02:00:05;3.20;99.90
36206;DHT22;22242;48.796;9.930;2024-01-30T02:02:35;3.10;99.90
36206;DHT22;22242;48.796;9.930;2024-01-30T02:05:04;3.10;99.90
36206;DHT22;22242;48.796;9.930;2024-01-30T02:07:31;3.10;99.90
36206;DHT22;22242;48.796;9.930;2024-01-30T02:09:59;3.00;99.90
36206;DHT22;22242;48.796;9.930;2024-01-30T02:12:26;2.80;99.90
36206;DHT22;22242;48.796;9.930;2024-01-30T02:14:53;2.70;99.90
36206;DHT22;22242;48.796;9.930;2024-01-30T02:17:20;2.70;99.90
36206;DHT22;22242;48.796;9.930;2024-01-30T02:19:48;2.70;99.90
36206;DHT22;22242;48.796;9.930;2024-01-30T02:22:17;2.70;99.90
36206;DHT22;22242;48.796;9.930;2024-01-30T02:24:43;2.60;99.90
36206;DHT22;22242;48.796;9.930;2024-01-30T02:27:10;2.70;99.90
36206;DHT22;22242;48.796;9.930;2024-01-30T02:29:37;2.70;99.90
36206;DHT22;22242;48.796;9.930;2024-01-30T02:32:05;2.60;99.90
36206;DHT22;22242;48.796;9.930;2024-01-30T02:34:33;2.70;99.90
36206;DHT22;22242;48.796;9.930;2024-01-30T02:36:59;2.60;99.90
36206;DHT22;22242;48.796;9.930;2024-01-30T02:39:28;2.50;99.90
36206;DHT22;22242;48.796;9.930;2024-01-30T02:41:55;2.60;99.90
36206;DHT22;22242;48.796;9.930;2024-01-30T02:44:22;2.60;99.90
36206;DHT22;22242;48.796;9.930;2024-01-30T02:46:49;2.60;99.90
36206;DHT22;22242;48.796;9.930;2024-01-30T02:49:16;2.60;99.90
36206;DHT22;22242;48.796;9.930;2024-01-30T02:51:43;2.60;99.90
36206;DHT22;22242;48.796;9.930;2024-01-30T02:54:09;2.60;99.90
36206;DHT22;22242;48.796;9.930;2024-01-30T02:56:37;2.60;99.90
36206;DHT22;22242;48.796;9.930;2024-01-30T02:59:05;2.50;99.90
36206;DHT22;22242;48.796;9.930;2024-01-30T03:01:32;2.60;99.90
36206;DHT22;22242;48.796;9.930;2024-01-30T03:03:58;2.50;99.90
36206;DHT22;22242;48.796;9.930;2024-01-30T03:06:25;2.40;99.90
36206;DHT22;22242;48.796;9.930;2024-01-30T03:08:52;2.40;99.90
36206;DHT22;22242;48.796;9.930;2024-01-30T03:11:19;2.20;99.90
36206;DHT22;22242;48.796;9.930;2024-01-30T03:13:47;2.20;99.90
36206;DHT22;22242;48.796;9.930;2024-01-30T03:16:14;2.30;99.90
36206;DHT22;22242;48.796;9.930;2024-01-30T03:18:40;2.30;99.90
36206;DHT22;22242;48.796;9.930;2024-01-30T03:21:07;2.30;99.90
36206;DHT22;22242;48.796;9.930;2024-01-30T03:23:34;2.30;99.90
36206;DHT22;22242;48.796;9.930;2024-01-30T03:26:01;2.20;99.90
36206;DHT22;22242;48.796;9.930;2024-01-30T03:28:30;2.10;99.90
36206;DHT22;22242;48.796;9.930;2024-01-30T03:30:58;2.30;99.90
36206;DHT22;22242;48.796;9.930;2024-01-30T03:33:24;2.20;99.90
36206;DHT22;22242;48.796;9.930;2024-01-30T03:35:52;2.00;99.90
36206;DHT22;22242;48.796;9.930;2024-01-30T03:38:19;2.40;99.90
36206;DHT22;22242;48.796;9.930;2024-01-30T03:40:46;2.10;99.90
36206;DHT22;22242;48.796;9.930;2024-01-30T03:43:13;2.10;99.90
36206;DHT22;22242;48.796;9.930;2024-01-30T03:45:39;2.20;99.90
36206;DHT22;22242;48.796;9.930;2024-01-30T03:48:08;2.10;99.90
36206;DHT22;22242;48.796;9.930;2024-01-30T03:50:34;2.00;99.90
36206;DHT22;22242;48.796;9.930;2024-01-30T03:53:01;1.90;99.90
36206;DHT22;22242;48.796;9.930;2024-01-30T03:55:28;1.80;99.90
36206;DHT22;22242;48.796;9.930;2024-01-30T03:57:55;1.70;99.90
36206;DHT22;22242;48.796;9.930;2024-01-30T04:00:22;1.80;99.90
36206;DHT22;22242;48.796;9.930;2024-01-30T04:02:48;1.70;99.90
36206;DHT22;22242;48.796;9.930;2024-01-30T04:05:18;1.60;99.90
36206;DHT22;22242;48.796;9.930;2024-01-30T04:07:44;1.60;99.90
36206;DHT22;22242;48.796;9.930;2024-01-30T04:10:11;1.70;99.90
36206;DHT22;22242;48.796;9.930;2024-01-30T04:12:38;1.80;99.90
36206;DHT22;22242;48.796;9.930;2024-01-30T04:15:05;1.70;99.90
36206;DHT22;22242;48.796;9.930;2024-01-30T04:17:33;1.80;99.90
36206;DHT22;22242;48.796;9.930;2024-01-30T04:20:00;1.70;99.90
36206;DHT22;22242;48.796;9.930;2024-01-30T04:22:28;1.70;99.90
36206;DHT22;22242;48.796;9.930;2024-01-30T04:24:55;1.70;99.90
36206;DHT22;22242;48.796;9.930;2024-01-30T04:27:21;1.70;99.90
36206;DHT22;22242;48.796;9.930;2024-01-30T04:29:48;1.70;99.90
36206;DHT22;22242;48.796;9.930;2024-01-30T04:32:15;1.50;99.90
36206;DHT22;22242;48.796;9.930;2024-01-30T04:34:42;1.50;99.90
36206;DHT22;22242;48.796;9.930;2024-01-30T04:37:08;1.70;99.90
36206;DHT22;22242;48.796;9.930;2024-01-30T04:39:36;1.60;99.90
36206;DHT22;22242;48.796;9.930;2024-01-30T04:42:03;1.80;99.90
36206;DHT22;22242;48.796;9.930;2024-01-30T04:44:30;2.00;99.90
36206;DHT22;22242;48.796;9.930;2024-01-30T04:46:57;2.20;99.90
36206;DHT22;22242;48.796;9.930;2024-01-30T04:49:26;2.10;99.90
36206;DHT22;22242;48.796;9.930;2024-01-30T04:51:54;2.00;99.90
36206;DHT22;22242;48.796;9.930;2024-01-30T04:54:21;2.00;99.90
36206;DHT22;22242;48.796;9.930;2024-01-30T04:56:49;1.80;99.90
36206;DHT22;22242;48.796;9.930;2024-01-30T04:59:16;1.80;99.90
36206;DHT22;22242;48.796;9.930;2024-01-30T05:01:43;1.70;99.90
36206;DHT22;22242;48.796;9.930;2024-01-30T05:04:10;1.70;99.90
36206;DHT22;22242;48.796;9.930;2024-01-30T05:06:37;1.70;99.90
36206;DHT22;22242;48.796;9.930;2024-01-30T05:09:04;1.60;99.90
36206;DHT22;22242;48.796;9.930;2024-01-30T05:11:31;1.60;99.90
36206;DHT22;22242;48.796;9.930;2024-01-30T05:13:59;1.70;99.90
36206;DHT22;22242;48.796;9.930;2024-01-30T05:16:26;1.70;99.90
36206;DHT22;22242;48.796;9.930;2024-01-30T05:18:52;1.80;99.90
36206;DHT22;22242;48.796;9.930;2024-01-30T05:21:19;1.70;99.90
36206;DHT22;22242;48.796;9.930;2024-01-30T05:23:46;1.70;99.90
36206;DHT22;22242;48.796;9.930;2024-01-30T05:26:13;1.70;99.90
36206;DHT22;22242;48.796;9.930;2024-01-30T05:28:40;1.80;99.90
36206;DHT22;22242;48.796;9.930;2024-01-30T05:31:08;1.80;99.90
36206;DHT22;22242;48.796;9.930;2024-01-30T05:33:35;1.80;99.90
36206;DHT22;22242;48.796;9.930;2024-01-30T05:36:02;1.70;99.90
36206;DHT22;22242;48.796;9.930;2024-01-30T05:38:29;1.80;99.90
36206;DHT22;22242;48.796;9.930;2024-01-30T05:40:56;1.80;99.90
36206;DHT22;22242;48.796;9.930;2024-01-30T05:43:23;1.70;99.90
36206;DHT22;22242;48.796;9.930;2024-01-30T05:45:51;1.90;99.90
36206;DHT22;22242;48.796;9.930;2024-01-30T05:48:19;1.90;99.90
36206;DHT22;22242;48.796;9.930;2024-01-30T05:50:46;2.10;99.90
36206;DHT22;22242;48.796;9.930;2024-01-30T05:53:13;2.20;99.90
36206;DHT22;22242;48.796;9.930;2024-01-30T05:55:40;2.10;99.90
36206;DHT22;22242;48.796;9.930;2024-01-30T05:58:07;1.90;99.90
36206;DHT22;22242;48.796;9.930;2024-01-30T06:00:33;2.30;99.90
36206;DHT22;22242;48.796;9.930;2024-01-30T06:03:00;2.40;99.90
36206;DHT22;22242;48.796;9.930;2024-01-30T06:05:28;2.40;99.90
36206;DHT22;22242;48.796;9.930;2024-01-30T06:07:55;2.40;99.90
36206;DHT22;22242;48.796;9.930;2024-01-30T06:10:22;2.20;99.90
36206;DHT22;22242;48.796;9.930;2024-01-30T06:12:49;2.40;99.90
36206;DHT22;22242;48.796;9.930;2024-01-30T06:15:16;3.40;99.90
36206;DHT22;22242;48.796;9.930;2024-01-30T06:17:42;2.40;99.90
36206;DHT22;22242;48.796;9.930;2024-01-30T06:20:10;2.30;99.90
36206;DHT22;22242;48.796;9.930;2024-01-30T06:22:38;2.30;99.90
36206;DHT22;22242;48.796;9.930;2024-01-30T06:25:05;2.20;99.90
36206;DHT22;22242;48.796;9.930;2024-01-30T06:27:32;2.30;99.90
36206;DHT22;22242;48.796;9.930;2024-01-30T06:29:59;2.30;99.90
36206;DHT22;22242;48.796;9.930;2024-01-30T06:32:25;2.40;99.90
36206;DHT22;22242;48.796;9.930;2024-01-30T06:34:53;2.40;99.90
36206;DHT22;22242;48.796;9.930;2024-01-30T06:37:19;2.60;99.90
36206;DHT22;22242;48.796;9.930;2024-01-30T06:39:48;2.40;99.90
36206;DHT22;22242;48.796;9.930;2024-01-30T06:42:14;2.60;99.90
36206;DHT22;22242;48.796;9.930;2024-01-30T06:44:41;2.50;99.90
36206;DHT22;22242;48.796;9.930;2024-01-30T06:47:08;2.50;99.90
36206;DHT22;22242;48.796;9.930;2024-01-30T06:49:35;2.70;99.90
36206;DHT22;22242;48.796;9.930;2024-01-30T06:52:04;2.90;99.90
36206;DHT22;22242;48.796;9.930;2024-01-30T06:54:31;3.00;99.90
36206;DHT22;22242;48.796;9.930;2024-01-30T06:56:59;3.00;99.90
36206;DHT22;22242;48.796;9.930;2024-01-30T06:59:26;3.00;99.90
36206;DHT22;22242;48.796;9.930;2024-01-30T07:01:53;3.00;99.90
36206;DHT22;22242;48.796;9.930;2024-01-30T07:04:20;3.10;99.90
36206;DHT22;22242;48.796;9.930;2024-01-30T07:06:46;3.30;99.90
36206;DHT22;22242;48.796;9.930;2024-01-30T07:09:13;3.40;99.90
36206;DHT22;22242;48.796;9.930;2024-01-30T07:11:40;3.10;99.90
36206;DHT22;22242;48.796;9.930;2024-01-30T07:14:09;3.20;99.90
36206;DHT22;22242;48.796;9.930;2024-01-30T07:16:36;3.10;99.90
36206;DHT22;22242;48.796;9.930;2024-01-30T07:19:03;3.20;99.90
36206;DHT22;22242;48.796;9.930;2024-01-30T07:21:29;3.10;99.90
36206;DHT22;22242;48.796;9.930;2024-01-30T07:23:56;3.20;99.90
36206;DHT22;22242;48.796;9.930;2024-01-30T07:26:24;3.30;99.90
36206;DHT22;22242;48.796;9.930;2024-01-30T07:28:51;3.30;99.90
36206;DHT22;22242;48.796;9.930;2024-01-30T07:31:19;3.20;99.90
36206;DHT22;22242;48.796;9.930;2024-01-30T07:33:48;3.20;99.90
36206;DHT22;22242;48.796;9.930;2024-01-30T07:36:15;3.40;99.90
36206;DHT22;22242;48.796;9.930;2024-01-30T07:38:43;3.50;99.90
36206;DHT22;22242;48.796;9.930;2024-01-30T07:41:10;3.70;99.90
36206;DHT22;22242;48.796;9.930;2024-01-30T07:43:38;3.70;99.90
36206;DHT22;22242;48.796;9.930;2024-01-30T07:46:05;4.10;99.90
36206;DHT22;22242;48.796;9.930;2024-01-30T07:48:34;4.20;99.90
36206;DHT22;22242;48.796;9.930;2024-01-30T07:51:01;4.50;99.90
36206;DHT22;22242;48.796;9.930;2024-01-30T07:53:29;4.60;99.90
36206;DHT22;22242;48.796;9.930;2024-01-30T07:55:56;4.50;99.90
36206;DHT22;22242;48.796;9.930;2024-01-30T07:58:23;4.70;99.90
36206;DHT22;22242;48.796;9.930;2024-01-30T08:00:52;4.30;99.90
36206;DHT22;22242;48.796;9.930;2024-01-30T08:03:19;4.40;99.90
36206;DHT22;22242;48.796;9.930;2024-01-30T08:05:47;4.60;99.90
36206;DHT22;22242;48.796;9.930;2024-01-30T08:08:14;5.20;99.90
36206;DHT22;22242;48.796;9.930;2024-01-30T08:10:41;5.30;99.90
36206;DHT22;22242;48.796;9.930;2024-01-30T08:13:08;5.60;99.90
36206;DHT22;22242;48.796;9.930;2024-01-30T08:15:35;6.10;99.90
36206;DHT22;22242;48.796;9.930;2024-01-30T08:18:02;6.70;99.90
36206;DHT22;22242;48.796;9.930;2024-01-30T08:20:28;7.30;99.90
36206;DHT22;22242;48.796;9.930;2024-01-30T08:22:57;7.90;99.90
36206;DHT22;22242;48.796;9.930;2024-01-30T08:25:23;7.40;99.90
36206;DHT22;22242;48.796;9.930;2024-01-30T08:27:51;7.10;99.90
36206;DHT22;22242;48.796;9.930;2024-01-30T08:30:18;6.90;99.90
36206;DHT22;22242;48.796;9.930;2024-01-30T08:32:45;6.90;99.90
36206;DHT22;22242;48.796;9.930;2024-01-30T08:35:12;6.70;99.90
36206;DHT22;22242;48.796;9.930;2024-01-30T08:37:41;6.70;99.90
36206;DHT22;22242;48.796;9.930;2024-01-30T08:40:10;7.10;99.90
36206;DHT22;22242;48.796;9.930;2024-01-30T08:42:37;6.80;99.90
36206;DHT22;22242;48.796;9.930;2024-01-30T08:45:04;6.50;99.90
36206;DHT22;22242;48.796;9.930;2024-01-30T08:47:32;6.30;99.90
36206;DHT22;22242;48.796;9.930;2024-01-30T08:49:59;6.40;99.90
36206;DHT22;22242;48.796;9.930;2024-01-30T08:52:26;6.70;99.90
36206;DHT22;22242;48.796;9.930;2024-01-30T08:54:53;6.80;99.90
36206;DHT22;22242;48.796;9.930;2024-01-30T08:57:21;7.20;99.90
36206;DHT22;22242;48.796;9.930;2024-01-30T08:59:48;7.40;99.90
36206;DHT22;22242;48.796;9.930;2024-01-30T09:02:15;7.20;99.90
36206;DHT22;22242;48.796;9.930;2024-01-30T09:04:43;9.10;99.90
36206;DHT22;22242;48.796;9.930;2024-01-30T09:07:10;9.80;99.90
36206;DHT22;22242;48.796;9.930;2024-01-30T09:09:39;9.70;99.90
36206;DHT22;22242;48.796;9.930;2024-01-30T09:12:07;9.90;99.90
36206;DHT22;22242;48.796;9.930;2024-01-30T09:14:37;10.50;99.90
36206;DHT22;22242;48.796;9.930;2024-01-30T09:17:04;10.10;99.90
36206;DHT22;22242;48.796;9.930;2024-01-30T09:19:31;11.10;99.90
36206;DHT22;22242;48.796;9.930;2024-01-30T09:21:57;10.00;99.90
36206;DHT22;22242;48.796;9.930;2024-01-30T09:24:25;10.70;99.90
36206;DHT22;22242;48.796;9.930;2024-01-30T09:26:52;11.70;99.90
36206;DHT22;22242;48.796;9.930;2024-01-30T09:29:19;11.70;99.90
36206;DHT22;22242;48.796;9.930;2024-01-30T09:31:47;11.40;99.80
36206;DHT22;22242;48.796;9.930;2024-01-30T09:34:14;11.30;99.90
36206;DHT22;22242;48.796;9.930;2024-01-30T09:36:41;12.80;98.20
36206;DHT22;22242;48.796;9.930;2024-01-30T09:39:08;13.60;95.80
36206;DHT22;22242;48.796;9.930;2024-01-30T09:41:40;13.00;96.60
36206;DHT22;22242;48.796;9.930;2024-01-30T09:44:08;13.80;93.60
36206;DHT22;22242;48.796;9.930;2024-01-30T09:46:35;13.10;93.80
36206;DHT22;22242;48.796;9.930;2024-01-30T09:49:04;13.50;93.40
36206;DHT22;22242;48.796;9.930;2024-01-30T09:51:32;13.80;92.60
36206;DHT22;22242;48.796;9.930;2024-01-30T09:54:00;14.80;92.10
36206;DHT22;22242;48.796;9.930;2024-01-30T09:56:26;14.40;91.60
36206;DHT22;22242;48.796;9.930;2024-01-30T09:58:53;14.90;91.10
36206;DHT22;22242;48.796;9.930;2024-01-30T10:01:20;15.20;90.60
36206;DHT22;22242;48.796;9.930;2024-01-30T10:03:50;15.10;88.30
36206;DHT22;22242;48.796;9.930;2024-01-30T10:06:19;15.50;87.80
36206;DHT22;22242;48.796;9.930;2024-01-30T10:08:46;16.30;82.50
36206;DHT22;22242;48.796;9.930;2024-01-30T10:11:13;16.10;83.00
36206;DHT22;22242;48.796;9.930;2024-01-30T10:13:40;15.50;82.30
36206;DHT22;22242;48.796;9.930;2024-01-30T10:16:06;15.00;84.40
36206;DHT22;22242;48.796;9.930;2024-01-30T10:18:33;14.20;85.50
36206;DHT22;22242;48.796;9.930;2024-01-30T10:21:00;14.00;85.10
36206;DHT22;22242;48.796;9.930;2024-01-30T10:23:30;14.50;86.60
36206;DHT22;22242;48.796;9.930;2024-01-30T10:25:57;15.20;82.60
36206;DHT22;22242;48.796;9.930;2024-01-30T10:28:27;14.80;81.70
36206;DHT22;22242;48.796;9.930;2024-01-30T10:30:58;15.10;81.10
36206;DHT22;22242;48.796;9.930;2024-01-30T10:33:26;16.10;79.60
36206;DHT22;22242;48.796;9.930;2024-01-30T10:35:55;15.80;78.80
36206;DHT22;22242;48.796;9.930;2024-01-30T10:38:30;16.40;81.20
36206;DHT22;22242;48.796;9.930;2024-01-30T10:40:58;15.30;79.60
36206;DHT22;22242;48.796;9.930;2024-01-30T10:43:31;14.10;80.10
36206;DHT22;22242;48.796;9.930;2024-01-30T10:46:06;13.80;83.70
36206;DHT22;22242;48.796;9.930;2024-01-30T10:48:36;14.10;82.00
36206;DHT22;22242;48.796;9.930;2024-01-30T10:51:08;13.90;83.30
36206;DHT22;22242;48.796;9.930;2024-01-30T10:53:37;13.60;85.90
36206;DHT22;22242;48.796;9.930;2024-01-30T10:56:06;13.60;86.70
36206;DHT22;22242;48.796;9.930;2024-01-30T10:58:33;13.80;89.70
36206;DHT22;22242;48.796;9.930;2024-01-30T11:01:00;14.00;90.20
36206;DHT22;22242;48.796;9.930;2024-01-30T11:03:28;12.80;87.10
36206;DHT22;22242;48.796;9.930;2024-01-30T11:05:59;13.10;87.80
36206;DHT22;22242;48.796;9.930;2024-01-30T11:08:26;13.20;89.30
36206;DHT22;22242;48.796;9.930;2024-01-30T11:10:56;13.40;87.60
36206;DHT22;22242;48.796;9.930;2024-01-30T11:13:27;13.70;86.70
36206;DHT22;22242;48.796;9.930;2024-01-30T11:15:54;14.20;86.30
36206;DHT22;22242;48.796;9.930;2024-01-30T11:18:24;13.90;85.90
36206;DHT22;22242;48.796;9.930;2024-01-30T11:20:51;13.90;85.90
36206;DHT22;22242;48.796;9.930;2024-01-30T11:23:21;13.80;85.80
36206;DHT22;22242;48.796;9.930;2024-01-30T11:25:48;13.70;85.20
36206;DHT22;22242;48.796;9.930;2024-01-30T11:28:17;13.00;88.70
36206;DHT22;22242;48.796;9.930;2024-01-30T11:30:44;12.20;90.80
36206;DHT22;22242;48.796;9.930;2024-01-30T11:33:14;12.10;91.30
36206;DHT22;22242;48.796;9.930;2024-01-30T11:35:42;12.30;91.40
36206;DHT22;22242;48.796;9.930;2024-01-30T11:38:10;12.40;91.70
36206;DHT22;22242;48.796;9.930;2024-01-30T11:40:38;12.40;92.30
36206;DHT22;22242;48.796;9.930;2024-01-30T11:43:07;12.20;92.00
36206;DHT22;22242;48.796;9.930;2024-01-30T11:45:36;11.90;92.90
36206;DHT22;22242;48.796;9.930;2024-01-30T11:48:03;12.10;92.60
36206;DHT22;22242;48.796;9.930;2024-01-30T11:50:31;12.20;92.30
36206;DHT22;22242;48.796;9.930;2024-01-30T11:52:58;12.20;92.40
36206;DHT22;22242;48.796;9.930;2024-01-30T11:55:25;11.90;93.40
36206;DHT22;22242;48.796;9.930;2024-01-30T11:57:55;11.70;93.70
36206;DHT22;22242;48.796;9.930;2024-01-30T12:00:22;11.60;93.00
36206;DHT22;22242;48.796;9.930;2024-01-30T12:02:51;11.80;92.90
36206;DHT22;22242;48.796;9.930;2024-01-30T12:05:21;11.90;92.60
36206;DHT22;22242;48.796;9.930;2024-01-30T12:07:48;11.80;92.90
36206;DHT22;22242;48.796;9.930;2024-01-30T12:10:15;11.80;93.50
36206;DHT22;22242;48.796;9.930;2024-01-30T12:12:45;11.60;93.40
36206;DHT22;22242;48.796;9.930;2024-01-30T12:15:13;11.90;92.70
36206;DHT22;22242;48.796;9.930;2024-01-30T12:17:40;11.90;92.60
36206;DHT22;22242;48.796;9.930;2024-01-30T12:20:10;11.90;92.50
36206;DHT22;22242;48.796;9.930;2024-01-30T12:22:37;11.90;92.90
36206;DHT22;22242;48.796;9.930;2024-01-30T12:25:05;12.20;92.70
36206;DHT22;22242;48.796;9.930;2024-01-30T12:27:32;12.40;92.40
36206;DHT22;22242;48.796;9.930;2024-01-30T12:29:59;12.90;91.20
36206;DHT22;22242;48.796;9.930;2024-01-30T12:32:26;12.80;91.10
36206;DHT22;22242;48.796;9.930;2024-01-30T12:34:55;12.50;92.60
36206;DHT22;22242;48.796;9.930;2024-01-30T12:37:24;12.30;91.10
36206;DHT22;22242;48.796;9.930;2024-01-30T12:39:52;12.50;91.90
36206;DHT22;22242;48.796;9.930;2024-01-30T12:42:20;12.50;91.80
36206;DHT22;22242;48.796;9.930;2024-01-30T12:44:48;12.80;91.00
36206;DHT22;22242;48.796;9.930;2024-01-30T12:47:38;12.40;96.10
36206;DHT22;22242;48.796;9.930;2024-01-30T12:50:05;12.30;90.80
36206;DHT22;22242;48.796;9.930;2024-01-30T12:52:32;12.40;91.20
36206;DHT22;22242;48.796;9.930;2024-01-30T12:54:59;12.20;92.10
36206;DHT22;22242;48.796;9.930;2024-01-30T12:57:26;12.50;90.90
36206;DHT22;22242;48.796;9.930;2024-01-30T12:59:53;12.40;88.20
36206;DHT22;22242;48.796;9.930;2024-01-30T13:02:20;12.60;87.60
36206;DHT22;22242;48.796;9.930;2024-01-30T13:04:49;12.50;89.10
36206;DHT22;22242;48.796;9.930;2024-01-30T13:07:16;12.60;89.30
36206;DHT22;22242;48.796;9.930;2024-01-30T13:09:43;12.50;88.20
36206;DHT22;22242;48.796;9.930;2024-01-30T13:12:10;12.60;87.60
36206;DHT22;22242;48.796;9.930;2024-01-30T13:14:37;12.40;90.00
36206;DHT22;22242;48.796;9.930;2024-01-30T13:17:04;12.60;89.00
36206;DHT22;22242;48.796;9.930;2024-01-30T13:19:31;12.50;89.50
36206;DHT22;22242;48.796;9.930;2024-01-30T13:21:59;12.40;88.40
36206;DHT22;22242;48.796;9.930;2024-01-30T13:24:25;12.30;90.10
36206;DHT22;22242;48.796;9.930;2024-01-30T13:26:52;12.20;90.20
36206;DHT22;22242;48.796;9.930;2024-01-30T13:29:19;12.30;89.50
36206;DHT22;22242;48.796;9.930;2024-01-30T13:31:46;12.30;88.80
36206;DHT22;22242;48.796;9.930;2024-01-30T13:34:13;12.20;90.30
36206;DHT22;22242;48.796;9.930;2024-01-30T13:36:40;12.20;89.80
36206;DHT22;22242;48.796;9.930;2024-01-30T13:39:09;12.20;89.30
36206;DHT22;22242;48.796;9.930;2024-01-30T13:41:36;12.10;89.80
36206;DHT22;22242;48.796;9.930;2024-01-30T13:44:03;11.90;90.80
36206;DHT22;22242;48.796;9.930;2024-01-30T13:46:30;11.70;91.30
36206;DHT22;22242;48.796;9.930;2024-01-30T13:48:57;11.70;91.00
36206;DHT22;22242;48.796;9.930;2024-01-30T13:51:24;11.70;90.80
36206;DHT22;22242;48.796;9.930;2024-01-30T13:53:51;11.70;91.00
36206;DHT22;22242;48.796;9.930;2024-01-30T13:56:19;11.60;91.30
36206;DHT22;22242;48.796;9.930;2024-01-30T13:58:47;11.60;91.50
36206;DHT22;22242;48.796;9.930;2024-01-30T14:01:14;11.50;92.20
36206;DHT22;22242;48.796;9.930;2024-01-30T14:03:41;11.30;92.30
36206;DHT22;22242;48.796;9.930;2024-01-30T14:06:08;11.30;92.30
36206;DHT22;22242;48.796;9.930;2024-01-30T14:08:34;11.20;91.90
36206;DHT22;22242;48.796;9.930;2024-01-30T14:11:01;11.30;92.90
36206;DHT22;22242;48.796;9.930;2024-01-30T14:13:30;11.20;92.40
36206;DHT22;22242;48.796;9.930;2024-01-30T14:15:58;11.30;92.50
36206;DHT22;22242;48.796;9.930;2024-01-30T14:18:25;11.30;92.30
36206;DHT22;22242;48.796;9.930;2024-01-30T14:20:52;11.20;92.60
36206;DHT22;22242;48.796;9.930;2024-01-30T14:23:19;11.20;92.80
36206;DHT22;22242;48.796;9.930;2024-01-30T14:25:47;11.10;93.50
36206;DHT22;22242;48.796;9.930;2024-01-30T14:28:14;11.00;93.10
36206;DHT22;22242;48.796;9.930;2024-01-30T14:30:51;11.00;93.00
36206;DHT22;22242;48.796;9.930;2024-01-30T14:33:18;11.10;93.30
36206;DHT22;22242;48.796;9.930;2024-01-30T14:35:45;11.00;93.00
36206;DHT22;22242;48.796;9.930;2024-01-30T14:38:12;10.90;94.10
36206;DHT22;22242;48.796;9.930;2024-01-30T14:40:39;10.90;93.40
36206;DHT22;22242;48.796;9.930;2024-01-30T14:43:06;10.90;93.90
36206;DHT22;22242;48.796;9.930;2024-01-30T14:45:32;10.90;93.80
36206;DHT22;22242;48.796;9.930;2024-01-30T14:48:01;10.80;92.80
36206;DHT22;22242;48.796;9.930;2024-01-30T14:50:28;10.90;92.80
36206;DHT22;22242;48.796;9.930;2024-01-30T14:52:54;10.80;93.50
36206;DHT22;22242;48.796;9.930;2024-01-30T14:55:21;10.80;93.20
36206;DHT22;22242;48.796;9.930;2024-01-30T14:57:49;10.80;92.60
36206;DHT22;22242;48.796;9.930;2024-01-30T15:00:16;10.80;92.40
36206;DHT22;22242;48.796;9.930;2024-01-30T15:02:44;10.70;92.90
36206;DHT22;22242;48.796;9.930;2024-01-30T15:05:13;10.60;92.90
36206;DHT22;22242;48.796;9.930;2024-01-30T15:07:40;10.60;93.20
36206;DHT22;22242;48.796;9.930;2024-01-30T15:10:08;10.60;93.50
36206;DHT22;22242;48.796;9.930;2024-01-30T15:12:35;10.60;93.50
36206;DHT22;22242;48.796;9.930;2024-01-30T15:15:02;10.50;93.20
36206;DHT22;22242;48.796;9.930;2024-01-30T15:17:29;10.50;93.30
36206;DHT22;22242;48.796;9.930;2024-01-30T15:19:56;10.40;93.20
36206;DHT22;22242;48.796;9.930;2024-01-30T15:22:25;10.50;93.20
36206;DHT22;22242;48.796;9.930;2024-01-30T15:24:52;10.40;93.10
36206;DHT22;22242;48.796;9.930;2024-01-30T15:27:19;10.30;93.30
36206;DHT22;22242;48.796;9.930;2024-01-30T15:29:46;10.20;94.00
36206;DHT22;22242;48.796;9.930;2024-01-30T15:32:12;10.00;94.40
36206;DHT22;22242;48.796;9.930;2024-01-30T15:34:39;9.90;94.70
36206;DHT22;22242;48.796;9.930;2024-01-30T15:37:06;9.70;94.50
36206;DHT22;22242;48.796;9.930;2024-01-30T15:39:34;9.70;94.80
36206;DHT22;22242;48.796;9.930;2024-01-30T15:42:01;9.50;94.80